sensor_id;sensor_type;location;lat;lon;timestamp;P1;durP1;ratioP1;P2;durP2;ratioP2
57663;SDS011;43493;53.098;6.064;2023-03-14T00:00:37;29.30;;;5.53;;
57663;SDS011;43493;53.098;6.064;2023-03-14T00:03:03;33.40;;;7.07;;
57663;SDS011;43493;53.098;6.064;2023-03-14T00:05:29;27.80;;;6.67;;
57663;SDS011;43493;53.098;6.064;2023-03-14T00:07:54;27.17;;;5.13;;
57663;SDS011;43493;53.098;6.064;2023-03-14T00:10:20;27.23;;;4.97;;
57663;SDS011;43493;53.098;6.064;2023-03-14T00:12:46;23.97;;;5.20;;
57663;SDS011;43493;53.098;6.064;2023-03-14T00:15:12;25.13;;;6.67;;
57663;SDS011;43493;53.098;6.064;2023-03-14T00:17:38;27.87;;;5.47;;
57663;SDS011;43493;53.098;6.064;2023-03-14T00:20:05;22.57;;;4.73;;
57663;SDS011;43493;53.098;6.064;2023-03-14T00:22:35;18.90;;;4.83;;
57663;SDS011;43493;53.098;6.064;2023-03-14T00:25:01;25.10;;;5.03;;
57663;SDS011;43493;53.098;6.064;2023-03-14T00:27:28;26.63;;;5.80;;
57663;SDS011;43493;53.098;6.064;2023-03-14T00:29:54;28.60;;;6.23;;
57663;SDS011;43493;53.098;6.064;2023-03-14T00:32:19;24.73;;;5.63;;
57663;SDS011;43493;53.098;6.064;2023-03-14T00:34:48;25.03;;;5.50;;
57663;SDS011;43493;53.098;6.064;2023-03-14T00:37:14;20.63;;;4.83;;
57663;SDS011;43493;53.098;6.064;2023-03-14T00:39:40;21.30;;;5.13;;
57663;SDS011;43493;53.098;6.064;2023-03-14T00:42:06;23.10;;;4.93;;
57663;SDS011;43493;53.098;6.064;2023-03-14T00:44:32;29.17;;;5.83;;
57663;SDS011;43493;53.098;6.064;2023-03-14T00:46:58;24.03;;;4.57;;
57663;SDS011;43493;53.098;6.064;2023-03-14T00:49:24;26.93;;;5.57;;
57663;SDS011;43493;53.098;6.064;2023-03-14T00:51:50;26.77;;;5.73;;
57663;SDS011;43493;53.098;6.064;2023-03-14T00:54:16;21.97;;;3.83;;
57663;SDS011;43493;53.098;6.064;2023-03-14T00:56:43;27.00;;;4.93;;
57663;SDS011;43493;53.098;6.064;2023-03-14T00:59:08;27.77;;;5.20;;
57663;SDS011;43493;53.098;6.064;2023-03-14T01:01:34;23.20;;;4.73;;
57663;SDS011;43493;53.098;6.064;2023-03-14T01:04:01;23.20;;;4.90;;
57663;SDS011;43493;53.098;6.064;2023-03-14T01:06:27;22.97;;;4.43;;
57663;SDS011;43493;53.098;6.064;2023-03-14T01:08:54;24.17;;;4.77;;
57663;SDS011;43493;53.098;6.064;2023-03-14T01:11:28;21.17;;;4.37;;
57663;SDS011;43493;53.098;6.064;2023-03-14T01:13:58;19.20;;;4.50;;
57663;SDS011;43493;53.098;6.064;2023-03-14T01:16:25;19.50;;;3.97;;
57663;SDS011;43493;53.098;6.064;2023-03-14T01:18:52;23.13;;;4.53;;
57663;SDS011;43493;53.098;6.064;2023-03-14T01:21:19;28.73;;;4.63;;
57663;SDS011;43493;53.098;6.064;2023-03-14T01:23:54;23.15;;;4.50;;
57663;SDS011;43493;53.098;6.064;2023-03-14T01:26:21;22.13;;;3.67;;
57663;SDS011;43493;53.098;6.064;2023-03-14T01:28:48;17.20;;;4.63;;
57663;SDS011;43493;53.098;6.064;2023-03-14T01:31:15;19.33;;;4.17;;
57663;SDS011;43493;53.098;6.064;2023-03-14T01:33:41;23.03;;;3.73;;
57663;SDS011;43493;53.098;6.064;2023-03-14T01:36:08;14.37;;;3.80;;
57663;SDS011;43493;53.098;6.064;2023-03-14T01:38:35;18.73;;;3.93;;
57663;SDS011;43493;53.098;6.064;2023-03-14T01:41:02;17.90;;;3.17;;
57663;SDS011;43493;53.098;6.064;2023-03-14T01:43:29;18.23;;;3.77;;
57663;SDS011;43493;53.098;6.064;2023-03-14T01:48:49;26.95;;;4.95;;
57663;SDS011;43493;53.098;6.064;2023-03-14T01:54:17;17.83;;;3.27;;
57663;SDS011;43493;53.098;6.064;2023-03-14T01:57:11;19.73;;;3.73;;
57663;SDS011;43493;53.098;6.064;2023-03-14T01:59:52;15.40;;;3.60;;
57663;SDS011;43493;53.098;6.064;2023-03-14T02:02:21;18.23;;;4.03;;
57663;SDS011;43493;53.098;6.064;2023-03-14T02:04:49;19.63;;;3.73;;
57663;SDS011;43493;53.098;6.064;2023-03-14T02:07:17;19.80;;;4.57;;
57663;SDS011;43493;53.098;6.064;2023-03-14T02:09:48;20.47;;;3.77;;
57663;SDS011;43493;53.098;6.064;2023-03-14T02:12:15;25.37;;;4.10;;
57663;SDS011;43493;53.098;6.064;2023-03-14T02:14:41;22.27;;;4.30;;
57663;SDS011;43493;53.098;6.064;2023-03-14T02:17:13;21.47;;;3.30;;
57663;SDS011;43493;53.098;6.064;2023-03-14T02:22:13;17.07;;;3.13;;
57663;SDS011;43493;53.098;6.064;2023-03-14T02:24:50;20.23;;;2.93;;
57663;SDS011;43493;53.098;6.064;2023-03-14T02:27:37;18.03;;;3.33;;
57663;SDS011;43493;53.098;6.064;2023-03-14T02:30:26;15.33;;;2.60;;
57663;SDS011;43493;53.098;6.064;2023-03-14T02:32:54;17.23;;;3.67;;
57663;SDS011;43493;53.098;6.064;2023-03-14T02:35:27;20.17;;;2.90;;
57663;SDS011;43493;53.098;6.064;2023-03-14T02:37:59;16.20;;;3.47;;
57663;SDS011;43493;53.098;6.064;2023-03-14T02:40:32;13.68;;;2.65;;
57663;SDS011;43493;53.098;6.064;2023-03-14T02:42:58;15.83;;;2.60;;
57663;SDS011;43493;53.098;6.064;2023-03-14T02:47:52;18.90;;;3.70;;
57663;SDS011;43493;53.098;6.064;2023-03-14T02:50:22;21.87;;;4.00;;
57663;SDS011;43493;53.098;6.064;2023-03-14T02:52:51;18.97;;;4.10;;
57663;SDS011;43493;53.098;6.064;2023-03-14T02:55:20;19.23;;;3.17;;
57663;SDS011;43493;53.098;6.064;2023-03-14T02:57:47;22.83;;;3.60;;
57663;SDS011;43493;53.098;6.064;2023-03-14T03:00:13;22.70;;;4.03;;
57663;SDS011;43493;53.098;6.064;2023-03-14T03:02:39;21.43;;;3.43;;
57663;SDS011;43493;53.098;6.064;2023-03-14T03:05:05;15.77;;;3.57;;
57663;SDS011;43493;53.098;6.064;2023-03-14T03:07:31;19.77;;;4.30;;
57663;SDS011;43493;53.098;6.064;2023-03-14T03:09:57;22.47;;;4.10;;
57663;SDS011;43493;53.098;6.064;2023-03-14T03:12:23;22.27;;;4.13;;
57663;SDS011;43493;53.098;6.064;2023-03-14T03:14:49;21.37;;;3.83;;
57663;SDS011;43493;53.098;6.064;2023-03-14T03:17:14;23.80;;;4.50;;
57663;SDS011;43493;53.098;6.064;2023-03-14T03:19:40;23.77;;;4.60;;
57663;SDS011;43493;53.098;6.064;2023-03-14T03:22:06;23.47;;;5.03;;
57663;SDS011;43493;53.098;6.064;2023-03-14T03:24:32;22.67;;;3.63;;
57663;SDS011;43493;53.098;6.064;2023-03-14T03:26:58;23.57;;;4.27;;
57663;SDS011;43493;53.098;6.064;2023-03-14T03:29:24;24.93;;;4.57;;
57663;SDS011;43493;53.098;6.064;2023-03-14T03:31:49;27.17;;;4.47;;
57663;SDS011;43493;53.098;6.064;2023-03-14T03:34:15;26.23;;;4.37;;
57663;SDS011;43493;53.098;6.064;2023-03-14T03:36:41;25.43;;;4.77;;
57663;SDS011;43493;53.098;6.064;2023-03-14T03:39:07;24.03;;;3.87;;
57663;SDS011;43493;53.098;6.064;2023-03-14T03:41:33;28.27;;;5.37;;
57663;SDS011;43493;53.098;6.064;2023-03-14T03:43:59;30.73;;;5.07;;
57663;SDS011;43493;53.098;6.064;2023-03-14T03:46:25;29.60;;;4.47;;
57663;SDS011;43493;53.098;6.064;2023-03-14T03:48:54;28.33;;;4.23;;
57663;SDS011;43493;53.098;6.064;2023-03-14T03:51:21;27.63;;;5.23;;
57663;SDS011;43493;53.098;6.064;2023-03-14T03:53:47;29.73;;;4.73;;
57663;SDS011;43493;53.098;6.064;2023-03-14T03:56:12;34.07;;;5.20;;
57663;SDS011;43493;53.098;6.064;2023-03-14T03:58:38;27.00;;;4.50;;
57663;SDS011;43493;53.098;6.064;2023-03-14T04:01:05;30.77;;;5.37;;
57663;SDS011;43493;53.098;6.064;2023-03-14T04:03:32;30.03;;;5.30;;
57663;SDS011;43493;53.098;6.064;2023-03-14T04:06:01;27.00;;;4.80;;
57663;SDS011;43493;53.098;6.064;2023-03-14T04:08:29;27.23;;;4.90;;
57663;SDS011;43493;53.098;6.064;2023-03-14T04:10:56;29.87;;;4.77;;
57663;SDS011;43493;53.098;6.064;2023-03-14T04:13:26;27.13;;;5.07;;
57663;SDS011;43493;53.098;6.064;2023-03-14T04:15:53;22.60;;;4.90;;
57663;SDS011;43493;53.098;6.064;2023-03-14T04:18:19;23.53;;;4.13;;
57663;SDS011;43493;53.098;6.064;2023-03-14T04:20:50;25.30;;;4.87;;
57663;SDS011;43493;53.098;6.064;2023-03-14T04:23:17;28.90;;;4.60;;
57663;SDS011;43493;53.098;6.064;2023-03-14T04:25:42;19.07;;;4.10;;
57663;SDS011;43493;53.098;6.064;2023-03-14T04:28:08;26.73;;;4.73;;
57663;SDS011;43493;53.098;6.064;2023-03-14T04:30:34;23.03;;;4.37;;
57663;SDS011;43493;53.098;6.064;2023-03-14T04:32:59;29.27;;;4.10;;
57663;SDS011;43493;53.098;6.064;2023-03-14T04:35:25;21.37;;;4.47;;
57663;SDS011;43493;53.098;6.064;2023-03-14T04:37:51;36.50;;;4.87;;
57663;SDS011;43493;53.098;6.064;2023-03-14T04:40:17;28.73;;;4.70;;
57663;SDS011;43493;53.098;6.064;2023-03-14T04:42:43;23.80;;;4.37;;
57663;SDS011;43493;53.098;6.064;2023-03-14T04:45:09;20.53;;;4.00;;
57663;SDS011;43493;53.098;6.064;2023-03-14T04:47:35;23.63;;;4.53;;
57663;SDS011;43493;53.098;6.064;2023-03-14T04:50:01;23.77;;;5.13;;
57663;SDS011;43493;53.098;6.064;2023-03-14T04:52:26;23.17;;;5.60;;
57663;SDS011;43493;53.098;6.064;2023-03-14T04:54:52;20.20;;;5.03;;
57663;SDS011;43493;53.098;6.064;2023-03-14T04:57:18;18.10;;;4.83;;
57663;SDS011;43493;53.098;6.064;2023-03-14T04:59:43;22.20;;;5.13;;
57663;SDS011;43493;53.098;6.064;2023-03-14T05:02:09;22.87;;;5.47;;
57663;SDS011;43493;53.098;6.064;2023-03-14T05:04:35;18.17;;;5.87;;
57663;SDS011;43493;53.098;6.064;2023-03-14T05:07:01;22.77;;;5.80;;
57663;SDS011;43493;53.098;6.064;2023-03-14T05:09:27;25.97;;;5.53;;
57663;SDS011;43493;53.098;6.064;2023-03-14T05:11:52;19.50;;;5.67;;
57663;SDS011;43493;53.098;6.064;2023-03-14T05:14:18;21.27;;;7.00;;
57663;SDS011;43493;53.098;6.064;2023-03-14T05:16:44;20.80;;;5.70;;
57663;SDS011;43493;53.098;6.064;2023-03-14T05:19:10;22.60;;;5.60;;
57663;SDS011;43493;53.098;6.064;2023-03-14T05:21:36;21.10;;;6.30;;
57663;SDS011;43493;53.098;6.064;2023-03-14T05:24:02;13.07;;;5.67;;
57663;SDS011;43493;53.098;6.064;2023-03-14T05:26:27;18.37;;;5.93;;
57663;SDS011;43493;53.098;6.064;2023-03-14T05:28:53;16.10;;;6.07;;
57663;SDS011;43493;53.098;6.064;2023-03-14T05:31:19;17.87;;;5.27;;
57663;SDS011;43493;53.098;6.064;2023-03-14T05:33:45;11.63;;;5.13;;
57663;SDS011;43493;53.098;6.064;2023-03-14T05:36:10;16.97;;;6.27;;
57663;SDS011;43493;53.098;6.064;2023-03-14T05:38:36;16.90;;;5.00;;
57663;SDS011;43493;53.098;6.064;2023-03-14T05:41:02;11.60;;;4.87;;
57663;SDS011;43493;53.098;6.064;2023-03-14T05:43:28;15.17;;;5.10;;
57663;SDS011;43493;53.098;6.064;2023-03-14T05:45:54;11.27;;;5.23;;
57663;SDS011;43493;53.098;6.064;2023-03-14T05:48:20;15.67;;;5.53;;
57663;SDS011;43493;53.098;6.064;2023-03-14T05:50:46;19.97;;;6.07;;
57663;SDS011;43493;53.098;6.064;2023-03-14T05:53:12;16.03;;;5.70;;
57663;SDS011;43493;53.098;6.064;2023-03-14T05:55:39;13.43;;;6.00;;
57663;SDS011;43493;53.098;6.064;2023-03-14T05:58:05;14.17;;;4.83;;
57663;SDS011;43493;53.098;6.064;2023-03-14T06:00:31;13.97;;;5.17;;
57663;SDS011;43493;53.098;6.064;2023-03-14T06:02:56;10.97;;;5.33;;
57663;SDS011;43493;53.098;6.064;2023-03-14T06:05:22;11.80;;;5.03;;
57663;SDS011;43493;53.098;6.064;2023-03-14T06:07:48;11.53;;;5.10;;
57663;SDS011;43493;53.098;6.064;2023-03-14T06:10:14;13.30;;;5.50;;
57663;SDS011;43493;53.098;6.064;2023-03-14T06:12:40;9.63;;;4.67;;
57663;SDS011;43493;53.098;6.064;2023-03-14T06:15:05;17.20;;;4.77;;
57663;SDS011;43493;53.098;6.064;2023-03-14T06:17:32;14.50;;;4.67;;
57663;SDS011;43493;53.098;6.064;2023-03-14T06:19:57;13.77;;;2.63;;
57663;SDS011;43493;53.098;6.064;2023-03-14T06:22:23;10.17;;;1.90;;
57663;SDS011;43493;53.098;6.064;2023-03-14T06:24:49;10.93;;;2.13;;
57663;SDS011;43493;53.098;6.064;2023-03-14T06:27:15;17.53;;;2.23;;
57663;SDS011;43493;53.098;6.064;2023-03-14T06:29:41;7.97;;;1.67;;
57663;SDS011;43493;53.098;6.064;2023-03-14T06:32:06;13.10;;;1.90;;
57663;SDS011;43493;53.098;6.064;2023-03-14T06:34:32;12.77;;;2.13;;
57663;SDS011;43493;53.098;6.064;2023-03-14T06:36:58;14.70;;;2.87;;
57663;SDS011;43493;53.098;6.064;2023-03-14T06:39:24;21.00;;;2.53;;
57663;SDS011;43493;53.098;6.064;2023-03-14T06:41:50;22.57;;;2.47;;
57663;SDS011;43493;53.098;6.064;2023-03-14T06:44:15;20.80;;;3.23;;
57663;SDS011;43493;53.098;6.064;2023-03-14T06:46:41;19.87;;;2.70;;
57663;SDS011;43493;53.098;6.064;2023-03-14T06:49:07;20.20;;;2.27;;
57663;SDS011;43493;53.098;6.064;2023-03-14T06:51:32;18.27;;;2.83;;
57663;SDS011;43493;53.098;6.064;2023-03-14T06:53:59;15.53;;;2.40;;
57663;SDS011;43493;53.098;6.064;2023-03-14T06:56:24;17.37;;;2.47;;
57663;SDS011;43493;53.098;6.064;2023-03-14T06:58:50;19.30;;;2.93;;
57663;SDS011;43493;53.098;6.064;2023-03-14T07:01:26;15.57;;;2.90;;
57663;SDS011;43493;53.098;6.064;2023-03-14T07:03:54;16.80;;;2.27;;
57663;SDS011;43493;53.098;6.064;2023-03-14T07:06:20;8.63;;;1.77;;
57663;SDS011;43493;53.098;6.064;2023-03-14T07:08:46;10.80;;;1.30;;
57663;SDS011;43493;53.098;6.064;2023-03-14T07:11:11;10.60;;;1.60;;
57663;SDS011;43493;53.098;6.064;2023-03-14T07:13:38;6.90;;;1.60;;
57663;SDS011;43493;53.098;6.064;2023-03-14T07:16:04;11.55;;;1.73;;
57663;SDS011;43493;53.098;6.064;2023-03-14T07:18:31;11.75;;;1.65;;
57663;SDS011;43493;53.098;6.064;2023-03-14T07:20:56;11.37;;;1.10;;
57663;SDS011;43493;53.098;6.064;2023-03-14T07:23:22;6.67;;;1.30;;
57663;SDS011;43493;53.098;6.064;2023-03-14T07:25:48;12.73;;;1.80;;
57663;SDS011;43493;53.098;6.064;2023-03-14T07:28:13;6.73;;;1.33;;
57663;SDS011;43493;53.098;6.064;2023-03-14T07:30:39;13.17;;;1.90;;
57663;SDS011;43493;53.098;6.064;2023-03-14T07:33:05;12.33;;;1.97;;
57663;SDS011;43493;53.098;6.064;2023-03-14T07:35:31;11.00;;;1.43;;
57663;SDS011;43493;53.098;6.064;2023-03-14T07:37:56;6.77;;;1.47;;
57663;SDS011;43493;53.098;6.064;2023-03-14T07:40:22;8.23;;;1.37;;
57663;SDS011;43493;53.098;6.064;2023-03-14T07:42:48;6.83;;;1.27;;
57663;SDS011;43493;53.098;6.064;2023-03-14T07:45:14;5.47;;;0.90;;
57663;SDS011;43493;53.098;6.064;2023-03-14T07:47:40;11.65;;;1.38;;
57663;SDS011;43493;53.098;6.064;2023-03-14T07:50:06;9.43;;;1.37;;
57663;SDS011;43493;53.098;6.064;2023-03-14T07:52:32;8.95;;;1.48;;
57663;SDS011;43493;53.098;6.064;2023-03-14T07:54:58;11.40;;;1.33;;
57663;SDS011;43493;53.098;6.064;2023-03-14T07:57:24;11.53;;;1.83;;
57663;SDS011;43493;53.098;6.064;2023-03-14T07:59:50;13.60;;;1.77;;
57663;SDS011;43493;53.098;6.064;2023-03-14T08:02:16;12.73;;;1.93;;
57663;SDS011;43493;53.098;6.064;2023-03-14T08:04:43;9.35;;;1.40;;
57663;SDS011;43493;53.098;6.064;2023-03-14T08:07:08;12.17;;;2.43;;
57663;SDS011;43493;53.098;6.064;2023-03-14T08:09:34;9.70;;;2.37;;
57663;SDS011;43493;53.098;6.064;2023-03-14T08:12:00;12.37;;;2.90;;
57663;SDS011;43493;53.098;6.064;2023-03-14T08:14:26;15.10;;;2.23;;
57663;SDS011;43493;53.098;6.064;2023-03-14T08:16:54;17.60;;;3.42;;
57663;SDS011;43493;53.098;6.064;2023-03-14T08:19:19;14.20;;;2.40;;
57663;SDS011;43493;53.098;6.064;2023-03-14T08:21:46;13.13;;;3.40;;
57663;SDS011;43493;53.098;6.064;2023-03-14T08:24:11;11.97;;;2.50;;
57663;SDS011;43493;53.098;6.064;2023-03-14T08:26:37;10.90;;;2.33;;
57663;SDS011;43493;53.098;6.064;2023-03-14T08:29:03;11.73;;;2.73;;
57663;SDS011;43493;53.098;6.064;2023-03-14T08:31:29;14.93;;;2.58;;
57663;SDS011;43493;53.098;6.064;2023-03-14T08:33:58;14.25;;;2.83;;
57663;SDS011;43493;53.098;6.064;2023-03-14T08:36:24;15.73;;;2.95;;
57663;SDS011;43493;53.098;6.064;2023-03-14T08:38:50;17.97;;;3.50;;
57663;SDS011;43493;53.098;6.064;2023-03-14T08:41:16;17.30;;;3.33;;
57663;SDS011;43493;53.098;6.064;2023-03-14T08:43:41;19.67;;;3.20;;
57663;SDS011;43493;53.098;6.064;2023-03-14T08:46:07;21.13;;;4.30;;
57663;SDS011;43493;53.098;6.064;2023-03-14T08:48:33;21.37;;;4.17;;
57663;SDS011;43493;53.098;6.064;2023-03-14T08:51:08;13.73;;;2.43;;
57663;SDS011;43493;53.098;6.064;2023-03-14T08:53:39;21.35;;;4.05;;
57663;SDS011;43493;53.098;6.064;2023-03-14T08:56:05;18.93;;;3.60;;
57663;SDS011;43493;53.098;6.064;2023-03-14T08:58:32;20.33;;;4.30;;
57663;SDS011;43493;53.098;6.064;2023-03-14T09:00:58;23.80;;;3.73;;
57663;SDS011;43493;53.098;6.064;2023-03-14T09:03:24;17.17;;;3.93;;
57663;SDS011;43493;53.098;6.064;2023-03-14T09:05:51;18.90;;;3.37;;
57663;SDS011;43493;53.098;6.064;2023-03-14T09:08:17;25.80;;;3.77;;
57663;SDS011;43493;53.098;6.064;2023-03-14T09:10:43;21.50;;;3.27;;
57663;SDS011;43493;53.098;6.064;2023-03-14T09:13:09;17.03;;;3.43;;
57663;SDS011;43493;53.098;6.064;2023-03-14T09:15:35;27.53;;;3.20;;
57663;SDS011;43493;53.098;6.064;2023-03-14T09:18:00;24.73;;;4.40;;
57663;SDS011;43493;53.098;6.064;2023-03-14T09:20:27;26.80;;;4.13;;
57663;SDS011;43493;53.098;6.064;2023-03-14T09:22:52;23.93;;;4.23;;
57663;SDS011;43493;53.098;6.064;2023-03-14T09:25:18;22.90;;;3.90;;
57663;SDS011;43493;53.098;6.064;2023-03-14T09:27:44;24.60;;;4.83;;
57663;SDS011;43493;53.098;6.064;2023-03-14T09:30:10;17.60;;;3.40;;
57663;SDS011;43493;53.098;6.064;2023-03-14T09:32:36;25.10;;;4.10;;
57663;SDS011;43493;53.098;6.064;2023-03-14T09:35:01;28.33;;;4.40;;
57663;SDS011;43493;53.098;6.064;2023-03-14T09:37:27;21.10;;;4.80;;
57663;SDS011;43493;53.098;6.064;2023-03-14T09:39:53;24.03;;;3.60;;
57663;SDS011;43493;53.098;6.064;2023-03-14T09:42:21;25.40;;;3.93;;
57663;SDS011;43493;53.098;6.064;2023-03-14T09:44:57;20.77;;;3.55;;
57663;SDS011;43493;53.098;6.064;2023-03-14T09:47:25;22.53;;;4.03;;
57663;SDS011;43493;53.098;6.064;2023-03-14T09:49:51;28.00;;;4.13;;
57663;SDS011;43493;53.098;6.064;2023-03-14T09:52:31;22.93;;;3.60;;
57663;SDS011;43493;53.098;6.064;2023-03-14T09:57:29;25.27;;;3.67;;
57663;SDS011;43493;53.098;6.064;2023-03-14T10:00:04;19.53;;;4.67;;
57663;SDS011;43493;53.098;6.064;2023-03-14T10:02:39;28.17;;;5.30;;
57663;SDS011;43493;53.098;6.064;2023-03-14T10:05:17;20.47;;;3.17;;
57663;SDS011;43493;53.098;6.064;2023-03-14T10:07:45;20.37;;;4.40;;
57663;SDS011;43493;53.098;6.064;2023-03-14T10:10:13;24.03;;;3.80;;
57663;SDS011;43493;53.098;6.064;2023-03-14T10:12:53;28.40;;;4.50;;
57663;SDS011;43493;53.098;6.064;2023-03-14T10:15:30;22.57;;;3.33;;
57663;SDS011;43493;53.098;6.064;2023-03-14T10:17:58;18.00;;;4.00;;
57663;SDS011;43493;53.098;6.064;2023-03-14T10:20:36;16.23;;;3.07;;
57663;SDS011;43493;53.098;6.064;2023-03-14T10:25:40;18.13;;;2.70;;
57663;SDS011;43493;53.098;6.064;2023-03-14T10:28:26;20.50;;;2.77;;
57663;SDS011;43493;53.098;6.064;2023-03-14T10:30:54;14.43;;;3.00;;
57663;SDS011;43493;53.098;6.064;2023-03-14T10:33:25;16.73;;;3.83;;
57663;SDS011;43493;53.098;6.064;2023-03-14T10:35:57;16.27;;;3.43;;
57663;SDS011;43493;53.098;6.064;2023-03-14T10:38:31;17.77;;;3.03;;
57663;SDS011;43493;53.098;6.064;2023-03-14T10:40:59;17.83;;;3.22;;
57663;SDS011;43493;53.098;6.064;2023-03-14T10:43:32;22.63;;;3.30;;
57663;SDS011;43493;53.098;6.064;2023-03-14T10:46:11;13.70;;;3.03;;
57663;SDS011;43493;53.098;6.064;2023-03-14T10:48:42;16.73;;;2.97;;
57663;SDS011;43493;53.098;6.064;2023-03-14T10:53:46;13.63;;;2.83;;
57663;SDS011;43493;53.098;6.064;2023-03-14T10:56:14;13.60;;;2.10;;
57663;SDS011;43493;53.098;6.064;2023-03-14T10:58:46;15.77;;;2.57;;
57663;SDS011;43493;53.098;6.064;2023-03-14T11:07:01;17.03;;;2.90;;
57663;SDS011;43493;53.098;6.064;2023-03-14T11:09:56;14.90;;;2.15;;
57663;SDS011;43493;53.098;6.064;2023-03-14T11:15:36;14.23;;;2.53;;
57663;SDS011;43493;53.098;6.064;2023-03-14T11:26:37;11.03;;;1.90;;
57663;SDS011;43493;53.098;6.064;2023-03-14T11:35:22;6.17;;;1.40;;
57663;SDS011;43493;53.098;6.064;2023-03-14T11:37:54;5.93;;;1.67;;
57663;SDS011;43493;53.098;6.064;2023-03-14T11:45:35;8.93;;;1.43;;
57663;SDS011;43493;53.098;6.064;2023-03-14T11:50:46;10.07;;;1.57;;
57663;SDS011;43493;53.098;6.064;2023-03-14T11:53:22;11.33;;;2.03;;
57663;SDS011;43493;53.098;6.064;2023-03-14T11:56:37;10.87;;;1.87;;
57663;SDS011;43493;53.098;6.064;2023-03-14T11:59:05;13.63;;;2.00;;
57663;SDS011;43493;53.098;6.064;2023-03-14T12:01:52;14.57;;;2.50;;
57663;SDS011;43493;53.098;6.064;2023-03-14T12:07:34;12.03;;;2.47;;
57663;SDS011;43493;53.098;6.064;2023-03-14T12:10:08;16.98;;;3.13;;
57663;SDS011;43493;53.098;6.064;2023-03-14T12:12:34;17.53;;;3.30;;
57663;SDS011;43493;53.098;6.064;2023-03-14T12:15:00;17.10;;;3.23;;
57663;SDS011;43493;53.098;6.064;2023-03-14T12:17:35;13.60;;;2.93;;
57663;SDS011;43493;53.098;6.064;2023-03-14T12:22:43;13.67;;;2.40;;
57663;SDS011;43493;53.098;6.064;2023-03-14T12:30:38;9.93;;;1.80;;
57663;SDS011;43493;53.098;6.064;2023-03-14T12:36:02;14.47;;;2.20;;
57663;SDS011;43493;53.098;6.064;2023-03-14T12:43:51;9.93;;;1.97;;
57663;SDS011;43493;53.098;6.064;2023-03-14T12:48:46;9.90;;;1.60;;
57663;SDS011;43493;53.098;6.064;2023-03-14T12:51:19;11.17;;;2.50;;
57663;SDS011;43493;53.098;6.064;2023-03-14T12:57:06;12.47;;;2.23;;
57663;SDS011;43493;53.098;6.064;2023-03-14T12:59:42;11.07;;;2.47;;
57663;SDS011;43493;53.098;6.064;2023-03-14T13:04:48;14.55;;;2.30;;
57663;SDS011;43493;53.098;6.064;2023-03-14T13:12:47;18.23;;;3.03;;
57663;SDS011;43493;53.098;6.064;2023-03-14T13:15:32;12.47;;;2.30;;
57663;SDS011;43493;53.098;6.064;2023-03-14T13:18:01;12.83;;;2.17;;
57663;SDS011;43493;53.098;6.064;2023-03-14T13:20:35;12.43;;;1.73;;
57663;SDS011;43493;53.098;6.064;2023-03-14T13:23:02;12.33;;;2.20;;
57663;SDS011;43493;53.098;6.064;2023-03-14T13:25:29;13.33;;;2.50;;
57663;SDS011;43493;53.098;6.064;2023-03-14T13:27:59;11.10;;;2.20;;
57663;SDS011;43493;53.098;6.064;2023-03-14T13:30:28;8.70;;;1.80;;
57663;SDS011;43493;53.098;6.064;2023-03-14T13:33:03;9.70;;;1.45;;
57663;SDS011;43493;53.098;6.064;2023-03-14T13:35:38;15.00;;;1.83;;
57663;SDS011;43493;53.098;6.064;2023-03-14T13:38:13;8.83;;;2.13;;
57663;SDS011;43493;53.098;6.064;2023-03-14T13:40:51;7.70;;;2.27;;
57663;SDS011;43493;53.098;6.064;2023-03-14T13:43:27;7.33;;;1.50;;
57663;SDS011;43493;53.098;6.064;2023-03-14T13:48:32;10.03;;;1.70;;
57663;SDS011;43493;53.098;6.064;2023-03-14T13:51:06;10.70;;;2.10;;
57663;SDS011;43493;53.098;6.064;2023-03-14T13:53:48;12.87;;;2.03;;
57663;SDS011;43493;53.098;6.064;2023-03-14T13:56:16;12.40;;;1.80;;
57663;SDS011;43493;53.098;6.064;2023-03-14T13:58:43;14.57;;;2.30;;
57663;SDS011;43493;53.098;6.064;2023-03-14T14:01:12;9.50;;;1.80;;
57663;SDS011;43493;53.098;6.064;2023-03-14T14:03:48;6.93;;;1.93;;
57663;SDS011;43493;53.098;6.064;2023-03-14T14:06:35;8.80;;;1.80;;
57663;SDS011;43493;53.098;6.064;2023-03-14T14:09:12;8.90;;;1.70;;
57663;SDS011;43493;53.098;6.064;2023-03-14T14:11:42;14.30;;;1.80;;
57663;SDS011;43493;53.098;6.064;2023-03-14T14:14:13;10.00;;;1.70;;
57663;SDS011;43493;53.098;6.064;2023-03-14T14:16:53;7.17;;;1.50;;
57663;SDS011;43493;53.098;6.064;2023-03-14T14:19:20;6.23;;;1.33;;
57663;SDS011;43493;53.098;6.064;2023-03-14T14:21:48;9.80;;;2.03;;
57663;SDS011;43493;53.098;6.064;2023-03-14T14:24:15;6.33;;;1.57;;
57663;SDS011;43493;53.098;6.064;2023-03-14T14:26:46;11.23;;;1.50;;
57663;SDS011;43493;53.098;6.064;2023-03-14T14:29:26;8.43;;;2.20;;
57663;SDS011;43493;53.098;6.064;2023-03-14T14:32:02;6.23;;;1.40;;
57663;SDS011;43493;53.098;6.064;2023-03-14T14:34:38;9.53;;;1.60;;
57663;SDS011;43493;53.098;6.064;2023-03-14T14:37:17;9.40;;;1.93;;
57663;SDS011;43493;53.098;6.064;2023-03-14T14:39:45;7.17;;;1.50;;
57663;SDS011;43493;53.098;6.064;2023-03-14T14:42:13;10.30;;;1.47;;
57663;SDS011;43493;53.098;6.064;2023-03-14T14:44:42;9.73;;;2.20;;
57663;SDS011;43493;53.098;6.064;2023-03-14T14:47:12;14.30;;;1.77;;
57663;SDS011;43493;53.098;6.064;2023-03-14T14:49:40;7.77;;;1.80;;
57663;SDS011;43493;53.098;6.064;2023-03-14T14:52:13;13.10;;;1.90;;
57663;SDS011;43493;53.098;6.064;2023-03-14T14:54:48;11.02;;;2.42;;
57663;SDS011;43493;53.098;6.064;2023-03-14T14:57:24;10.10;;;1.57;;
57663;SDS011;43493;53.098;6.064;2023-03-14T14:59:54;13.03;;;2.07;;
57663;SDS011;43493;53.098;6.064;2023-03-14T15:02:35;15.70;;;2.10;;
57663;SDS011;43493;53.098;6.064;2023-03-14T15:05:13;11.00;;;1.80;;
57663;SDS011;43493;53.098;6.064;2023-03-14T15:07:43;12.23;;;2.30;;
57663;SDS011;43493;53.098;6.064;2023-03-14T15:10:10;13.23;;;2.30;;
57663;SDS011;43493;53.098;6.064;2023-03-14T15:12:38;12.23;;;2.80;;
57663;SDS011;43493;53.098;6.064;2023-03-14T15:15:04;9.80;;;2.60;;
57663;SDS011;43493;53.098;6.064;2023-03-14T15:17:30;10.17;;;2.00;;
57663;SDS011;43493;53.098;6.064;2023-03-14T15:19:56;15.20;;;2.20;;
57663;SDS011;43493;53.098;6.064;2023-03-14T15:22:23;13.40;;;2.40;;
57663;SDS011;43493;53.098;6.064;2023-03-14T15:24:50;14.20;;;2.73;;
57663;SDS011;43493;53.098;6.064;2023-03-14T15:27:16;9.40;;;1.80;;
57663;SDS011;43493;53.098;6.064;2023-03-14T15:29:43;11.10;;;1.87;;
57663;SDS011;43493;53.098;6.064;2023-03-14T15:32:10;9.27;;;1.90;;
57663;SDS011;43493;53.098;6.064;2023-03-14T15:34:37;9.83;;;2.00;;
57663;SDS011;43493;53.098;6.064;2023-03-14T15:37:03;7.90;;;2.13;;
57663;SDS011;43493;53.098;6.064;2023-03-14T15:39:33;8.83;;;1.83;;
57663;SDS011;43493;53.098;6.064;2023-03-14T15:41:59;9.00;;;2.27;;
57663;SDS011;43493;53.098;6.064;2023-03-14T15:44:25;10.10;;;2.20;;
57663;SDS011;43493;53.098;6.064;2023-03-14T15:46:51;11.50;;;2.40;;
57663;SDS011;43493;53.098;6.064;2023-03-14T15:49:17;8.67;;;1.90;;
57663;SDS011;43493;53.098;6.064;2023-03-14T15:51:42;9.37;;;2.20;;
57663;SDS011;43493;53.098;6.064;2023-03-14T15:54:08;15.37;;;2.23;;
57663;SDS011;43493;53.098;6.064;2023-03-14T15:56:34;10.77;;;2.53;;
57663;SDS011;43493;53.098;6.064;2023-03-14T15:59:00;10.93;;;2.33;;
57663;SDS011;43493;53.098;6.064;2023-03-14T16:01:25;9.27;;;2.40;;
57663;SDS011;43493;53.098;6.064;2023-03-14T16:03:51;15.33;;;3.10;;
57663;SDS011;43493;53.098;6.064;2023-03-14T16:06:17;12.00;;;2.50;;
57663;SDS011;43493;53.098;6.064;2023-03-14T16:08:44;12.70;;;2.00;;